Time;durP1;ratioP1;P1;durP2;ratioP2;P2;SDS_P1;SDS_P2;PMS_P1;PMS_P2;Temp;Humidity;BMP_temperature;BMP_pressure;BME280_temperature;BME280_humidity;BME280_pressure;Samples;Min_cycle;Max_cycle;Signal;HPM_P1;HPM_P2
2023/05/23 00:00:25;;;;;;;;;;;;;;;20.10;65.81;100579.72;7400433;19;1129;-43
2023/05/23 00:02:54;;;;;;;;;;;;;;;20.04;66.25;100581.13;7397656;19;1939;-42
2023/05/23 00:05:22;;;;;;;;;;;;;;;20.05;65.92;100585.53;7399970;19;1410;-42
2023/05/23 00:07:50;;;;;;;;;;;;;;;20.08;65.57;100595.13;7398227;19;1702;-42
2023/05/23 00:10:21;;;;;;;;;;;;;;;20.00;65.97;100587.78;7400480;19;1081;-42
2023/05/23 00:12:49;;;;;;;;;;;;;;;20.00;66.08;100595.00;7399056;19;1880;-42
2023/05/23 00:15:18;;;;;;;;;;;;;;;19.95;66.37;100594.59;7398902;19;1608;-42
2023/05/23 00:17:46;;;;;;;;;;;;;;;19.91;66.53;100595.88;7399098;19;1824;-42
2023/05/23 00:20:15;;;;;;;;;;;;;;;19.94;66.29;100574.97;7399095;19;1905;-42
2023/05/23 00:22:47;;;;;;;;;;;;;;;19.93;66.55;100584.00;7398801;19;1394;-42
2023/05/23 00:25:15;;;;;;;;;;;;;;;19.94;66.26;100590.22;7397003;19;1386;-42
2023/05/23 00:27:46;;;;;;;;;;;;;;;19.89;66.81;100593.31;7398747;19;1817;-42
2023/05/23 00:30:14;;;;;;;;;;;;;;;19.96;66.11;100594.44;7399294;19;1038;-42
2023/05/23 00:32:42;;;;;;;;;;;;;;;19.89;66.95;100589.81;7398392;19;1857;-42
2023/05/23 00:35:11;;;;;;;;;;;;;;;19.89;66.73;100593.31;7399276;19;1856;-42
2023/05/23 00:37:39;;;;;;;;;;;;;;;19.91;66.34;100591.34;7398395;19;1605;-42
2023/05/23 00:40:08;;;;;;;;;;;;;;;19.93;66.18;100605.47;7398119;19;1457;-42
2023/05/23 00:42:37;;;;;;;;;;;;;;;19.88;66.76;100593.50;7398910;19;1738;-42
2023/05/23 00:45:08;;;;;;;;;;;;;;;19.93;66.13;100600.09;7398258;19;1757;-42
2023/05/23 00:47:37;;;;;;;;;;;;;;;19.88;66.75;100594.34;7398017;19;1485;-42
2023/05/23 00:50:05;;;;;;;;;;;;;;;19.86;66.79;100605.22;7397163;19;1441;-42
2023/05/23 00:52:34;;;;;;;;;;;;;;;19.93;66.28;100596.56;7396669;19;1863;-42
2023/05/23 00:55:03;;;;;;;;;;;;;;;19.94;66.40;100584.88;7398149;19;1821;-42
2023/05/23 00:57:33;;;;;;;;;;;;;;;19.99;66.14;100599.50;7398980;19;1023;-42
2023/05/23 01:00:02;;;;;;;;;;;;;;;20.01;65.83;100576.06;7397933;19;1508;-42
2023/05/23 01:02:35;;;;;;;;;;;;;;;20.02;65.78;100601.06;7394531;19;1534;-42
2023/05/23 01:05:03;;;;;;;;;;;;;;;20.02;66.14;100587.66;7397538;19;1718;-42
2023/05/23 01:07:32;;;;;;;;;;;;;;;19.97;66.29;100595.28;7396208;19;1481;-43
2023/05/23 01:10:00;;;;;;;;;;;;;;;19.92;66.06;100594.91;7396030;19;1760;-43
2023/05/23 01:12:31;;;;;;;;;;;;;;;20.00;66.05;100592.31;7398061;19;1836;-42
2023/05/23 01:15:07;;;;;;;;;;;;;;;19.98;65.87;100575.53;7397716;19;1899;-42
2023/05/23 01:17:42;;;;;;;;;;;;;;;20.00;66.04;100584.28;7398167;19;1852;-42
2023/05/23 01:20:13;;;;;;;;;;;;;;;20.00;65.55;100577.06;7396551;19;1498;-42
2023/05/23 01:22:52;;;;;;;;;;;;;;;19.98;66.22;100588.94;7397254;19;1587;-42
2023/05/23 01:25:30;;;;;;;;;;;;;;;20.02;66.19;100596.56;7397303;19;1960;-42
2023/05/23 01:28:02;;;;;;;;;;;;;;;20.04;65.83;100599.09;7393757;19;1946;-42
2023/05/23 01:30:33;;;;;;;;;;;;;;;20.00;65.80;100598.53;7396752;19;1462;-42
2023/05/23 01:33:02;;;;;;;;;;;;;;;20.03;65.74;100592.03;7396280;19;1834;-42
2023/05/23 01:35:31;;;;;;;;;;;;;;;20.03;65.90;100602.75;7398003;19;1011;-42
2023/05/23 01:38:00;;;;;;;;;;;;;;;19.95;65.90;100584.69;7397304;19;1780;-42
2023/05/23 01:40:28;;;;;;;;;;;;;;;19.99;65.69;100588.78;7396071;19;1852;-42
2023/05/23 01:42:57;;;;;;;;;;;;;;;19.99;66.06;100586.09;7396378;19;1740;-42
2023/05/23 01:45:29;;;;;;;;;;;;;;;19.96;65.92;100593.63;7397177;19;1716;-42
2023/05/23 01:47:58;;;;;;;;;;;;;;;19.98;65.92;100597.00;7396942;19;1714;-42
2023/05/23 01:50:28;;;;;;;;;;;;;;;19.96;65.65;100582.88;7395544;19;1336;-42
2023/05/23 01:52:56;;;;;;;;;;;;;;;19.98;65.88;100599.69;7395170;19;1851;-42
2023/05/23 01:55:25;;;;;;;;;;;;;;;19.94;66.14;100628.63;7395112;19;1702;-42
2023/05/23 01:57:55;;;;;;;;;;;;;;;19.95;66.16;100591.91;7394913;19;1921;-42
2023/05/23 02:00:23;;;;;;;;;;;;;;;19.93;66.15;100604.63;7396926;19;1653;-42
2023/05/23 02:02:54;;;;;;;;;;;;;;;19.94;65.89;100595.59;7394003;19;1509;-42
2023/05/23 02:05:23;;;;;;;;;;;;;;;19.97;66.01;100600.66;7396636;19;1698;-42
2023/05/23 02:07:51;;;;;;;;;;;;;;;19.93;65.61;100591.22;7395386;19;1844;-42
2023/05/23 02:10:19;;;;;;;;;;;;;;;19.94;66.06;100595.59;7392773;19;1431;-42
2023/05/23 02:12:48;;;;;;;;;;;;;;;19.94;65.92;100595.59;7395917;19;1852;-42
2023/05/23 02:15:16;;;;;;;;;;;;;;;19.90;65.74;100603.09;7397270;19;953;-42
2023/05/23 02:17:44;;;;;;;;;;;;;;;19.90;65.96;100594.19;7396974;19;1758;-42
2023/05/23 02:20:17;;;;;;;;;;;;;;;19.89;66.13;100603.22;7401777;19;1947;-42
2023/05/23 02:22:46;;;;;;;;;;;;;;;19.82;66.10;100602.97;7403422;19;1844;-42
2023/05/23 02:25:14;;;;;;;;;;;;;;;19.89;65.74;100605.91;7402305;19;1436;-42
2023/05/23 02:27:42;;;;;;;;;;;;;;;19.89;65.67;100608.59;7404047;19;1744;-42
2023/05/23 02:30:11;;;;;;;;;;;;;;;19.90;65.66;100605.78;7403687;19;1072;-42
2023/05/23 02:32:39;;;;;;;;;;;;;;;19.92;65.48;100608.31;7402580;19;1851;-42
2023/05/23 02:35:09;;;;;;;;;;;;;;;19.88;65.63;100598.88;7402665;19;1588;-42
2023/05/23 02:37:40;;;;;;;;;;;;;;;19.90;65.88;100594.19;7402793;19;1938;-42
2023/05/23 02:40:09;;;;;;;;;;;;;;;19.93;65.92;100597.41;7401948;19;1465;-55
2023/05/23 02:42:37;;;;;;;;;;;;;;;19.97;65.87;100606.88;7402865;19;1745;-46
2023/05/23 02:45:06;;;;;;;;;;;;;;;19.92;65.91;100595.75;7402510;19;1726;-42
2023/05/23 02:47:34;;;;;;;;;;;;;;;19.96;65.91;100596.28;7401959;19;1811;-42
2023/05/23 02:50:02;;;;;;;;;;;;;;;19.95;65.67;100608.00;7400727;19;1734;-43
2023/05/23 02:52:32;;;;;;;;;;;;;;;19.95;65.51;100608.84;7402323;19;1929;-42
2023/05/23 02:55:03;;;;;;;;;;;;;;;19.94;65.93;100609.84;7401856;19;1762;-42
2023/05/23 02:57:31;;;;;;;;;;;;;;;19.96;65.69;100610.56;7402645;19;1026;-42
2023/05/23 02:59:59;;;;;;;;;;;;;;;19.92;65.57;100597.59;7401458;19;1557;-42
2023/05/23 03:02:27;;;;;;;;;;;;;;;19.94;65.64;100609.03;7399088;19;1600;-44
2023/05/23 03:04:56;;;;;;;;;;;;;;;19.90;65.63;100616.50;7403097;19;1833;-43
2023/05/23 03:07:25;;;;;;;;;;;;;;;19.94;65.46;100611.69;7401923;19;1748;-42
2023/05/23 03:09:54;;;;;;;;;;;;;;;19.90;65.64;100623.72;7401027;19;1042;-42
2023/05/23 03:12:25;;;;;;;;;;;;;;;19.92;65.80;100624.41;7401581;19;1434;-42
2023/05/23 03:14:53;;;;;;;;;;;;;;;19.93;65.53;100626.94;7399872;19;1895;-42
2023/05/23 03:17:21;;;;;;;;;;;;;;;19.97;65.39;100638.22;7401940;19;1797;-42
2023/05/23 03:19:50;;;;;;;;;;;;;;;19.93;65.49;100615.38;7401032;19;1375;-42
2023/05/23 03:22:18;;;;;;;;;;;;;;;19.90;65.95;100621.88;7400868;19;1474;-43
2023/05/23 03:24:46;;;;;;;;;;;;;;;19.91;65.89;100622.72;7400364;19;1670;-42
2023/05/23 03:27:15;;;;;;;;;;;;;;;19.95;65.82;100624.13;7398070;19;1010;-42
2023/05/23 03:29:46;;;;;;;;;;;;;;;19.91;65.78;100625.41;7400267;19;2104;-42
2023/05/23 03:32:15;;;;;;;;;;;;;;;19.91;65.77;100633.44;7400012;19;1509;-43
2023/05/23 03:34:43;;;;;;;;;;;;;;;19.90;65.75;100616.50;7399145;19;1862;-43
2023/05/23 03:37:11;;;;;;;;;;;;;;;19.88;65.97;100623.03;7400154;19;1627;-42
2023/05/23 03:39:40;;;;;;;;;;;;;;;19.91;65.43;100644.19;7398477;19;1561;-43
2023/05/23 03:42:08;;;;;;;;;;;;;;;19.94;65.54;100641.22;7398713;19;1799;-42
2023/05/23 03:44:36;;;;;;;;;;;;;;;19.87;66.03;100659.72;7398796;19;1379;-42
2023/05/23 03:47:07;;;;;;;;;;;;;;;19.91;65.71;100645.03;7400632;19;1351;-42
2023/05/23 03:49:36;;;;;;;;;;;;;;;19.95;65.70;100642.91;7399804;19;1347;-60
2023/05/23 03:52:04;;;;;;;;;;;;;;;19.94;65.43;100652.81;7399319;19;1406;-42
2023/05/23 03:54:32;;;;;;;;;;;;;;;19.89;65.51;100636.28;7397299;19;1849;-42
2023/05/23 03:57:01;;;;;;;;;;;;;;;19.96;65.37;100647.28;7400244;19;1045;-42
2023/05/23 03:59:29;;;;;;;;;;;;;;;19.92;65.59;100646.72;7399081;19;1741;-42
2023/05/23 04:01:59;;;;;;;;;;;;;;;19.94;65.53;100650.13;7400202;19;1001;-42
2023/05/23 04:04:31;;;;;;;;;;;;;;;19.91;65.60;100642.34;7400513;19;1046;-42
2023/05/23 04:07:00;;;;;;;;;;;;;;;19.91;65.72;100652.22;7399732;19;1812;-42
2023/05/23 04:09:28;;;;;;;;;;;;;;;19.92;65.87;100656.63;7397111;19;1565;-42
2023/05/23 04:11:56;;;;;;;;;;;;;;;19.81;66.34;100658.44;7398286;19;1609;-42
2023/05/23 04:14:26;;;;;;;;;;;;;;;19.89;65.76;100656.91;7397889;19;1860;-42
2023/05/23 04:16:54;;;;;;;;;;;;;;;19.87;65.73;100657.03;7398648;19;1394;-42
2023/05/23 04:19:22;;;;;;;;;;;;;;;19.94;65.82;100654.66;7398573;19;1730;-42
2023/05/23 04:21:53;;;;;;;;;;;;;;;19.82;65.93;100667.38;7397246;19;1725;-42
2023/05/23 04:24:22;;;;;;;;;;;;;;;19.83;65.99;100669.06;7397366;19;1386;-42
2023/05/23 04:26:50;;;;;;;;;;;;;;;19.78;66.60;100672.16;7397937;19;1093;-42
2023/05/23 04:29:19;;;;;;;;;;;;;;;19.75;66.68;100677.81;7397451;19;1888;-42
2023/05/23 04:31:47;;;;;;;;;;;;;;;19.71;66.45;100668.34;7397474;19;1740;-42
2023/05/23 04:34:16;;;;;;;;;;;;;;;19.69;66.65;100672.97;7396787;19;1858;-42
2023/05/23 04:36:44;;;;;;;;;;;;;;;19.75;66.13;100676.97;7397623;19;1685;-42
2023/05/23 04:39:15;;;;;;;;;;;;;;;19.76;66.59;100668.78;7397071;19;1746;-43
2023/05/23 04:41:44;;;;;;;;;;;;;;;19.72;66.68;100688.84;7396393;19;1729;-42
2023/05/23 04:44:13;;;;;;;;;;;;;;;19.79;66.32;100683.75;7398361;19;1733;-42
2023/05/23 04:46:44;;;;;;;;;;;;;;;19.67;66.55;100678.47;7397170;19;1343;-42
2023/05/23 04:49:13;;;;;;;;;;;;;;;19.74;66.63;100681.50;7397930;19;1337;-42
2023/05/23 04:51:41;;;;;;;;;;;;;;;19.82;66.39;100684.31;7398294;19;1653;-42
2023/05/23 04:54:09;;;;;;;;;;;;;;;19.95;65.96;100693.91;7398224;19;1857;-42
2023/05/23 04:56:40;;;;;;;;;;;;;;;19.92;66.00;100678.09;7397832;19;1859;-42
2023/05/23 04:59:10;;;;;;;;;;;;;;;19.91;65.93;100677.22;7393861;19;1806;-43
2023/05/23 05:01:39;;;;;;;;;;;;;;;19.86;66.22;100682.19;7398302;19;1010;-42
2023/05/23 05:04:07;;;;;;;;;;;;;;;19.94;66.32;100678.78;7397887;19;1877;-43
2023/05/23 05:06:36;;;;;;;;;;;;;;;20.00;66.11;100672.84;7397303;19;1640;-42
2023/05/23 05:09:04;;;;;;;;;;;;;;;20.08;65.85;100681.03;7393587;19;1100;-42
2023/05/23 05:11:35;;;;;;;;;;;;;;;20.13;65.39;100681.41;7396011;19;1458;-42
2023/05/23 05:14:06;;;;;;;;;;;;;;;20.16;65.44;100681.13;7396348;19;1951;-42
2023/05/23 05:16:35;;;;;;;;;;;;;;;20.12;65.65;100687.78;7397171;19;1505;-42
2023/05/23 05:19:03;;;;;;;;;;;;;;;20.13;65.58;100672.53;7397397;19;1817;-42
2023/05/23 05:21:31;;;;;;;;;;;;;;;20.11;65.40;100663.78;7396395;19;1422;-42
2023/05/23 05:24:00;;;;;;;;;;;;;;;20.03;65.77;100681.47;7396489;19;1675;-42
2023/05/23 05:26:28;;;;;;;;;;;;;;;20.12;65.89;100669.00;7396024;19;1804;-42
2023/05/23 05:28:57;;;;;;;;;;;;;;;20.14;65.68;100666.19;7395710;19;1387;-42
2023/05/23 05:31:28;;;;;;;;;;;;;;;20.16;65.45;100658.81;7396045;19;1319;-43
2023/05/23 05:33:56;;;;;;;;;;;;;;;20.18;65.47;100662.22;7394837;19;1863;-42
2023/05/23 05:36:25;;;;;;;;;;;;;;;20.21;65.74;100661.91;7396684;19;1679;-42
2023/05/23 05:38:53;;;;;;;;;;;;;;;20.16;65.43;100654.28;7397198;19;1927;-42
2023/05/23 05:41:22;;;;;;;;;;;;;;;20.23;65.55;100660.78;7397261;19;1895;-42
2023/05/23 05:43:50;;;;;;;;;;;;;;;20.29;65.13;100675.44;7396071;19;1944;-42
2023/05/23 05:46:18;;;;;;;;;;;;;;;20.29;65.56;100659.31;7395479;19;1450;-43
2023/05/23 05:48:49;;;;;;;;;;;;;;;20.23;65.40;100671.53;7396979;19;1793;-42
2023/05/23 05:51:18;;;;;;;;;;;;;;;20.33;65.55;100673.31;7396289;19;1401;-42
2023/05/23 05:53:46;;;;;;;;;;;;;;;20.33;65.53;100673.31;7400254;19;1855;-42
2023/05/23 05:56:14;;;;;;;;;;;;;;;20.18;65.80;100671.09;7403738;19;1674;-42
2023/05/23 05:58:43;;;;;;;;;;;;;;;20.17;65.86;100661.34;7402465;19;1663;-42
2023/05/23 06:01:11;;;;;;;;;;;;;;;20.25;65.79;100674.91;7403426;19;1007;-43
2023/05/23 06:03:40;;;;;;;;;;;;;;;20.37;65.44;100672.91;7403007;19;1801;-42
2023/05/23 06:06:10;;;;;;;;;;;;;;;20.46;65.29;100663.09;7403207;19;1698;-42
2023/05/23 06:08:39;;;;;;;;;;;;;;;20.45;65.11;100667.63;7401837;19;1840;-42
2023/05/23 06:11:08;;;;;;;;;;;;;;;20.43;65.46;100666.94;7403033;19;1619;-42
2023/05/23 06:13:36;;;;;;;;;;;;;;;20.29;65.57;100663.84;7402438;19;1737;-42
2023/05/23 06:16:04;;;;;;;;;;;;;;;20.24;65.69;100673.19;7402012;19;1777;-42
2023/05/23 06:18:33;;;;;;;;;;;;;;;20.21;66.04;100662.78;7403439;19;1691;-42
2023/05/23 06:21:01;;;;;;;;;;;;;;;20.16;66.30;100669.56;7403353;19;1734;-42
2023/05/23 06:23:32;;;;;;;;;;;;;;;20.15;65.87;100673.22;7403626;19;1754;-42
2023/05/23 06:26:00;;;;;;;;;;;;;;;20.21;65.89;100681.56;7404121;19;958;-43
2023/05/23 06:28:28;;;;;;;;;;;;;;;20.08;66.12;100664.91;7400368;19;1514;-42
2023/05/23 06:30:57;;;;;;;;;;;;;;;20.34;65.85;100662.44;7402698;19;1390;-42
2023/05/23 06:33:25;;;;;;;;;;;;;;;20.15;66.34;100660.63;7401933;19;1821;-42
2023/05/23 06:35:53;;;;;;;;;;;;;;;20.07;66.69;100660.53;7401842;19;1845;-42
2023/05/23 06:38:22;;;;;;;;;;;;;;;20.01;66.63;100666.47;7402606;19;1931;-42
2023/05/23 06:40:53;;;;;;;;;;;;;;;19.96;66.83;100671.44;7403423;19;1779;-42
2023/05/23 06:43:21;;;;;;;;;;;;;;;20.15;66.26;100666.00;7401877;19;1934;-42
2023/05/23 06:45:49;;;;;;;;;;;;;;;19.93;66.87;100655.63;7402365;19;1884;-42
2023/05/23 06:48:18;;;;;;;;;;;;;;;19.93;67.02;100661.00;7402448;19;1725;-43
2023/05/23 06:50:46;;;;;;;;;;;;;;;20.07;66.65;100639.06;7400860;19;1419;-42
2023/05/23 06:53:15;;;;;;;;;;;;;;;20.12;66.24;100658.25;7400298;19;1729;-42
2023/05/23 06:55:43;;;;;;;;;;;;;;;20.16;66.50;100648.94;7400576;19;1859;-42
2023/05/23 06:58:14;;;;;;;;;;;;;;;20.11;66.64;100639.63;7401331;19;1394;-43
2023/05/23 07:00:42;;;;;;;;;;;;;;;20.01;66.84;100653.06;7402712;19;1002;-42
2023/05/23 07:03:11;;;;;;;;;;;;;;;20.04;67.01;100628.63;7399278;19;1600;-42
2023/05/23 07:05:39;;;;;;;;;;;;;;;19.93;67.49;100636.84;7398844;19;1765;-42
2023/05/23 07:08:09;;;;;;;;;;;;;;;19.84;67.63;100639.41;7399884;19;1733;-42
2023/05/23 07:10:40;;;;;;;;;;;;;;;19.91;67.22;100639.66;7401644;19;1718;-42
2023/05/23 07:13:08;;;;;;;;;;;;;;;19.90;67.47;100639.81;7401821;19;1823;-42
2023/05/23 07:15:39;;;;;;;;;;;;;;;19.91;67.01;100628.09;7399659;19;1848;-42
2023/05/23 07:18:07;;;;;;;;;;;;;;;19.83;67.60;100647.59;7401452;19;1394;-42
2023/05/23 07:20:35;;;;;;;;;;;;;;;19.98;67.65;100639.94;7402662;19;1659;-43
2023/05/23 07:23:04;;;;;;;;;;;;;;;20.02;66.97;100630.59;7402761;19;1020;-42
2023/05/23 07:25:32;;;;;;;;;;;;;;;20.11;66.85;100627.03;7400794;19;1845;-42
2023/05/23 07:28:00;;;;;;;;;;;;;;;19.97;67.40;100630.19;7397104;19;1545;-42
2023/05/23 07:30:28;;;;;;;;;;;;;;;19.88;67.46;100620.34;7401062;19;1273;-42
2023/05/23 07:32:59;;;;;;;;;;;;;;;19.86;67.38;100634.72;7402236;19;945;-42
2023/05/23 07:35:28;;;;;;;;;;;;;;;19.86;67.61;100642.78;7399255;19;1840;-42
2023/05/23 07:37:56;;;;;;;;;;;;;;;19.92;67.44;100640.53;7399975;19;1880;-42
2023/05/23 07:40:25;;;;;;;;;;;;;;;19.88;67.40;100625.69;7400080;19;1750;-42
2023/05/23 07:42:54;;;;;;;;;;;;;;;19.91;67.74;100622.72;7400111;19;1785;-42
2023/05/23 07:45:22;;;;;;;;;;;;;;;19.91;67.64;100628.09;7398639;19;1407;-42
2023/05/23 07:47:51;;;;;;;;;;;;;;;19.97;67.66;100620.28;7398626;19;1843;-42
2023/05/23 07:50:22;;;;;;;;;;;;;;;20.15;67.02;100636.47;7399808;19;1462;-42
2023/05/23 07:52:50;;;;;;;;;;;;;;;20.27;66.12;100632.66;7399733;19;1481;-42
2023/05/23 07:55:20;;;;;;;;;;;;;;;20.34;66.06;100640.13;7398430;19;1849;-42
2023/05/23 07:57:48;;;;;;;;;;;;;;;20.33;66.53;100633.88;7400644;19;1746;-42
2023/05/23 08:00:17;;;;;;;;;;;;;;;20.45;65.60;100626.47;7401230;19;1027;-42
2023/05/23 08:02:45;;;;;;;;;;;;;;;20.56;65.61;100626.28;7396991;19;1565;-42
2023/05/23 08:05:13;;;;;;;;;;;;;;;20.31;66.46;100629.66;7399363;19;1738;-43
2023/05/23 08:07:44;;;;;;;;;;;;;;;20.48;65.86;100618.13;7400593;19;1211;-42
2023/05/23 08:10:13;;;;;;;;;;;;;;;20.50;65.58;100631.41;7400220;19;1039;-42
2023/05/23 08:12:41;;;;;;;;;;;;;;;20.39;65.92;100606.44;7399933;19;1600;-43
2023/05/23 08:15:10;;;;;;;;;;;;;;;20.15;66.92;100623.06;7398109;19;1875;-42
2023/05/23 08:17:38;;;;;;;;;;;;;;;20.32;66.37;100620.63;7395963;19;1399;-42
2023/05/23 08:20:08;;;;;;;;;;;;;;;20.02;67.42;100609.97;7399514;19;1800;-42
2023/05/23 08:22:37;;;;;;;;;;;;;;;19.90;67.80;100610.31;7398908;19;1375;-42
2023/05/23 08:25:08;;;;;;;;;;;;;;;19.94;67.32;100609.03;7398836;19;1812;-42
2023/05/23 08:27:37;;;;;;;;;;;;;;;19.85;67.73;100606.19;7399526;19;1019;-42
2023/05/23 08:30:08;;;;;;;;;;;;;;;19.82;68.31;100602.97;7399582;19;1867;-42
2023/05/23 08:32:37;;;;;;;;;;;;;;;19.82;67.78;100605.66;7399776;19;1821;-42
2023/05/23 08:35:05;;;;;;;;;;;;;;;19.86;68.00;100610.56;7397576;19;1864;-42
2023/05/23 08:37:33;;;;;;;;;;;;;;;19.90;68.12;100589.66;7399548;19;1505;-42
2023/05/23 08:40:02;;;;;;;;;;;;;;;19.94;68.09;100590.22;7398334;19;1662;-42
2023/05/23 08:42:33;;;;;;;;;;;;;;;20.35;66.68;100588.06;7397160;19;1738;-42
2023/05/23 08:45:01;;;;;;;;;;;;;;;20.45;66.28;100589.75;7398225;19;1496;-42
2023/05/23 08:47:30;;;;;;;;;;;;;;;20.55;65.52;100589.69;7399043;19;1027;-42
2023/05/23 08:50:00;;;;;;;;;;;;;;;20.39;66.06;100592.16;7397259;19;1512;-42
2023/05/23 08:52:29;;;;;;;;;;;;;;;20.13;66.84;100608.09;7398271;19;1716;-42
2023/05/23 08:54:58;;;;;;;;;;;;;;;20.27;66.95;100587.00;7396785;19;1848;-42
2023/05/23 08:57:27;;;;;;;;;;;;;;;20.31;66.66;100586.69;7398256;19;1031;-42
2023/05/23 08:59:59;;;;;;;;;;;;;;;20.22;66.99;100597.31;7398438;19;1505;-42
2023/05/23 09:02:28;;;;;;;;;;;;;;;20.42;65.96;100573.91;7394621;19;1876;-42
2023/05/23 09:04:56;;;;;;;;;;;;;;;20.43;66.39;100582.81;7397887;19;1505;-42
2023/05/23 09:07:24;;;;;;;;;;;;;;;20.23;66.84;100585.59;7397410;19;1375;-42
2023/05/23 09:09:53;;;;;;;;;;;;;;;20.10;66.90;100578.88;7397628;19;1046;-42
2023/05/23 09:12:22;;;;;;;;;;;;;;;20.16;67.06;100584.50;7397835;19;1774;-42
2023/05/23 09:14:50;;;;;;;;;;;;;;;20.07;67.23;100580.00;7396743;19;1844;-42
2023/05/23 09:17:22;;;;;;;;;;;;;;;20.11;66.73;100576.03;7397496;19;1860;-42
2023/05/23 09:19:51;;;;;;;;;;;;;;;20.10;67.40;100579.72;7397705;19;1705;-42
2023/05/23 09:22:25;;;;;;;;;;;;;;;19.96;67.35;100574.81;7397574;19;1390;-42
2023/05/23 09:24:53;;;;;;;;;;;;;;;20.02;67.54;100579.59;7397190;19;1959;-42
2023/05/23 09:27:22;;;;;;;;;;;;;;;20.03;67.13;100586.66;7397933;19;966;-42
2023/05/23 09:29:50;;;;;;;;;;;;;;;20.01;67.71;100581.41;7404664;19;1616;-42
2023/05/23 09:32:22;;;;;;;;;;;;;;;19.98;67.80;100576.38;7403839;19;1502;-42
2023/05/23 09:34:57;;;;;;;;;;;;;;;19.91;67.51;100569.88;7405115;19;1851;-42
2023/05/23 09:37:26;;;;;;;;;;;;;;;19.94;67.69;100563.41;7404261;19;1972;-42
2023/05/23 09:39:54;;;;;;;;;;;;;;;19.92;67.85;100552.78;7402991;19;1714;-44
2023/05/23 09:42:24;;;;;;;;;;;;;;;19.96;67.66;100556.03;7404467;19;1615;-42
2023/05/23 09:44:52;;;;;;;;;;;;;;;19.94;67.49;100552.66;7404227;19;1865;-42
2023/05/23 09:47:23;;;;;;;;;;;;;;;19.97;67.36;100558.56;7403589;19;1469;-42
2023/05/23 09:49:51;;;;;;;;;;;;;;;19.95;67.52;100563.22;7404715;19;1507;-42
2023/05/23 09:52:20;;;;;;;;;;;;;;;19.95;67.69;100565.91;7404915;19;1030;-42
2023/05/23 09:54:48;;;;;;;;;;;;;;;20.14;67.21;100554.25;7405524;19;1027;-42
2023/05/23 09:57:17;;;;;;;;;;;;;;;20.12;67.36;100556.25;7400920;19;1859;-42
2023/05/23 09:59:52;;;;;;;;;;;;;;;20.33;66.84;100547.09;7404221;19;1856;-42
2023/05/23 10:02:40;;;;;;;;;;;;;;;20.35;66.44;100545.09;7400342;19;1455;-42
2023/05/23 10:05:10;;;;;;;;;;;;;;;20.32;66.81;100546.25;7404108;19;1816;-42
2023/05/23 10:07:39;;;;;;;;;;;;;;;20.37;66.50;100537.75;7402383;19;1422;-42
2023/05/23 10:10:11;;;;;;;;;;;;;;;20.28;66.52;100558.28;7401560;19;1736;-44
2023/05/23 10:12:43;;;;;;;;;;;;;;;20.48;65.99;100539.41;7404504;19;995;-42
2023/05/23 10:15:12;;;;;;;;;;;;;;;20.33;66.61;100549.78;7404447;19;1847;-42
2023/05/23 10:17:48;;;;;;;;;;;;;;;20.35;66.39;100545.09;7402868;19;1850;-42
2023/05/23 10:20:18;;;;;;;;;;;;;;;20.19;66.66;100545.75;7403071;19;1517;-42
2023/05/23 10:22:46;;;;;;;;;;;;;;;19.98;67.72;100546.00;7402857;19;1526;-42
2023/05/23 10:25:15;;;;;;;;;;;;;;;19.89;67.60;100554.91;7402247;19;1423;-43
2023/05/23 10:27:43;;;;;;;;;;;;;;;19.90;67.58;100545.91;7402758;19;1675;-42
2023/05/23 10:30:12;;;;;;;;;;;;;;;19.95;67.88;100540.91;7404357;19;1006;-60
2023/05/23 10:32:41;;;;;;;;;;;;;;;19.92;67.64;100533.19;7403140;19;1887;-42
2023/05/23 10:35:16;;;;;;;;;;;;;;;19.84;68.19;100532.06;7402518;19;1847;-42
2023/05/23 10:37:51;;;;;;;;;;;;;;;19.90;67.93;100529.78;7400863;19;1420;-42
2023/05/23 10:40:24;;;;;;;;;;;;;;;19.86;68.02;100542.66;7399790;19;1756;-59
2023/05/23 10:42:54;;;;;;;;;;;;;;;19.81;67.82;100537.69;7401270;19;1466;-43
2023/05/23 10:45:24;;;;;;;;;;;;;;;19.84;68.31;100529.38;7400840;19;1401;-42
2023/05/23 10:47:53;;;;;;;;;;;;;;;19.92;68.04;100523.28;7401056;19;1800;-42
2023/05/23 10:50:38;;;;;;;;;;;;;;;19.89;67.89;100517.34;7402539;19;1402;-42
2023/05/23 10:53:07;;;;;;;;;;;;;;;19.85;68.23;100528.38;7402623;19;1411;-42
2023/05/23 10:55:37;;;;;;;;;;;;;;;19.84;68.23;100512.44;7401453;19;1856;-42
2023/05/23 10:58:12;;;;;;;;;;;;;;;19.99;67.48;100515.47;7402516;19;1924;-42
2023/05/23 11:00:40;;;;;;;;;;;;;;;20.05;67.64;100494.25;7400623;19;1497;-42
2023/05/23 11:03:10;;;;;;;;;;;;;;;19.97;67.75;100504.03;7399985;19;1892;-42
2023/05/23 11:05:49;;;;;;;;;;;;;;;20.17;66.93;100510.16;7400436;19;1694;-42
2023/05/23 11:08:17;;;;;;;;;;;;;;;20.13;67.33;100530.25;7399283;19;1855;-43
2023/05/23 11:11:03;;;;;;;;;;;;;;;20.00;67.37;100514.50;7401825;19;1371;-42
2023/05/23 11:13:46;;;;;;;;;;;;;;;20.18;67.05;100512.69;7398997;19;1600;-42
2023/05/23 11:16:28;;;;;;;;;;;;;;;20.30;66.31;100512.50;7399021;19;1849;-42
2023/05/23 11:19:11;;;;;;;;;;;;;;;20.15;66.70;100504.09;7399769;19;1465;-42
2023/05/23 11:21:42;;;;;;;;;;;;;;;20.17;66.85;100497.56;7399991;19;1832;-43
2023/05/23 11:24:11;;;;;;;;;;;;;;;20.08;67.65;100514.59;7400266;19;1490;-42
2023/05/23 11:26:39;;;;;;;;;;;;;;;19.97;67.88;100506.72;7399506;19;1058;-42
2023/05/23 11:29:10;;;;;;;;;;;;;;;19.99;67.64;100507.41;7399369;19;1793;-42
2023/05/23 11:31:39;;;;;;;;;;;;;;;19.90;68.03;100492.22;7400559;19;1733;-43
2023/05/23 11:34:08;;;;;;;;;;;;;;;19.96;67.87;100505.88;7400359;19;1744;-42
2023/05/23 11:36:36;;;;;;;;;;;;;;;20.25;67.13;100502.19;7398520;19;1849;-43
2023/05/23 11:39:08;;;;;;;;;;;;;;;20.31;66.38;100490.84;7401323;19;1729;-42
2023/05/23 11:41:36;;;;;;;;;;;;;;;20.13;67.14;100488.13;7401999;19;1031;-42
2023/05/23 11:44:12;;;;;;;;;;;;;;;20.23;66.85;100483.56;7401076;19;1947;-42
2023/05/23 11:46:41;;;;;;;;;;;;;;;20.20;67.08;100483.03;7400335;19;1604;-42
2023/05/23 11:49:12;;;;;;;;;;;;;;;20.05;67.62;100488.03;7400274;19;1762;-42
2023/05/23 11:51:41;;;;;;;;;;;;;;;20.07;67.59;100483.34;7399706;19;1922;-42
2023/05/23 11:54:12;;;;;;;;;;;;;;;19.95;67.38;100479.19;7399855;19;1327;-43
2023/05/23 11:56:43;;;;;;;;;;;;;;;19.89;68.24;100471.72;7399034;19;1853;-42
2023/05/23 11:59:11;;;;;;;;;;;;;;;19.85;68.29;100468.50;7399993;19;1666;-42
2023/05/23 12:01:40;;;;;;;;;;;;;;;19.85;67.93;100474.69;7399839;19;1828;-42
2023/05/23 12:04:12;;;;;;;;;;;;;;;19.83;68.08;100468.63;7399642;19;1510;-42
2023/05/23 12:06:40;;;;;;;;;;;;;;;19.81;68.29;100467.94;7399096;19;1833;-43
2023/05/23 12:09:13;;;;;;;;;;;;;;;20.17;67.12;100473.41;7398322;19;1765;-43
2023/05/23 12:11:41;;;;;;;;;;;;;;;20.11;67.17;100473.16;7399693;19;1490;-43
2023/05/23 12:14:09;;;;;;;;;;;;;;;20.19;67.41;100473.25;7399451;19;1473;-42
2023/05/23 12:16:38;;;;;;;;;;;;;;;20.05;67.31;100472.78;7397540;19;1856;-42
2023/05/23 12:19:06;;;;;;;;;;;;;;;19.96;67.96;100472.84;7398287;19;1339;-42
2023/05/23 12:21:44;;;;;;;;;;;;;;;20.18;67.31;100460.84;7398487;19;1806;-42
2023/05/23 12:24:18;;;;;;;;;;;;;;;20.19;67.26;100444.59;7398175;19;1488;-42
2023/05/23 12:26:49;;;;;;;;;;;;;;;20.33;66.49;100445.88;7400147;19;1142;-42
2023/05/23 12:29:19;;;;;;;;;;;;;;;20.09;67.17;100449.16;7397233;19;1823;-42
2023/05/23 12:31:50;;;;;;;;;;;;;;;19.94;67.68;100448.00;7398242;19;1398;-42
2023/05/23 12:34:18;;;;;;;;;;;;;;;19.96;67.81;100435.28;7398057;19;1824;-42
2023/05/23 12:36:48;;;;;;;;;;;;;;;19.87;67.84;100445.03;7399351;19;1843;-43
2023/05/23 12:39:25;;;;;;;;;;;;;;;19.85;68.06;100442.50;7399111;19;1759;-43
2023/05/23 12:41:55;;;;;;;;;;;;;;;20.02;67.92;100448.91;7398804;19;1777;-43
2023/05/23 12:44:23;;;;;;;;;;;;;;;20.00;67.76;100439.34;7398453;19;1530;-42
2023/05/23 12:46:51;;;;;;;;;;;;;;;20.25;66.65;100437.75;7398543;19;1844;-42
2023/05/23 12:49:20;;;;;;;;;;;;;;;20.23;66.98;100429.00;7398492;19;1683;-42
2023/05/23 12:51:48;;;;;;;;;;;;;;;20.30;66.59;100440.84;7398207;19;1826;-42
2023/05/23 12:54:19;;;;;;;;;;;;;;;20.33;66.46;100434.31;7398066;19;1717;-42
2023/05/23 12:56:48;;;;;;;;;;;;;;;20.36;66.66;100431.34;7396417;19;1844;-42
2023/05/23 12:59:16;;;;;;;;;;;;;;;20.34;66.69;100430.66;7396515;19;1390;-42